sensor_id;sensor_type;location;lat;lon;timestamp;temperature;humidity
49032;DHT22;63443;48.366;10.876;2023-04-24T00:01:27;12.00;99.90
49032;DHT22;63443;48.366;10.876;2023-04-24T00:03:54;12.00;99.90
49032;DHT22;63443;48.366;10.876;2023-04-24T00:06:21;11.90;99.90
49032;DHT22;63443;48.366;10.876;2023-04-24T00:08:48;11.90;99.90
49032;DHT22;63443;48.366;10.876;2023-04-24T00:11:14;11.90;99.90
49032;DHT22;63443;48.366;10.876;2023-04-24T00:13:39;11.90;99.90
49032;DHT22;63443;48.366;10.876;2023-04-24T00:16:05;11.80;99.90
49032;DHT22;63443;48.366;10.876;2023-04-24T00:18:31;11.70;99.90
49032;DHT22;63443;48.366;10.876;2023-04-24T00:20:56;11.70;99.90
49032;DHT22;63443;48.366;10.876;2023-04-24T00:23:22;11.60;99.90
49032;DHT22;63443;48.366;10.876;2023-04-24T00:25:47;11.50;99.90
49032;DHT22;63443;48.366;10.876;2023-04-24T00:28:12;11.50;99.90
49032;DHT22;63443;48.366;10.876;2023-04-24T00:30:38;11.50;99.90
49032;DHT22;63443;48.366;10.876;2023-04-24T00:33:03;11.50;99.90
49032;DHT22;63443;48.366;10.876;2023-04-24T00:35:29;11.60;99.90
49032;DHT22;63443;48.366;10.876;2023-04-24T00:37:54;11.60;99.90
49032;DHT22;63443;48.366;10.876;2023-04-24T00:40:20;11.60;99.90
49032;DHT22;63443;48.366;10.876;2023-04-24T00:42:46;11.50;99.90
49032;DHT22;63443;48.366;10.876;2023-04-24T00:45:11;11.50;99.90
49032;DHT22;63443;48.366;10.876;2023-04-24T00:47:37;11.40;99.90
49032;DHT22;63443;48.366;10.876;2023-04-24T00:50:04;11.40;99.90
49032;DHT22;63443;48.366;10.876;2023-04-24T00:52:30;11.40;99.90
49032;DHT22;63443;48.366;10.876;2023-04-24T00:54:57;11.30;99.90
49032;DHT22;63443;48.366;10.876;2023-04-24T00:57:23;11.30;99.90
49032;DHT22;63443;48.366;10.876;2023-04-24T00:59:50;11.30;99.90
49032;DHT22;63443;48.366;10.876;2023-04-24T01:02:15;11.30;99.90
49032;DHT22;63443;48.366;10.876;2023-04-24T01:04:41;11.30;99.90
49032;DHT22;63443;48.366;10.876;2023-04-24T01:07:06;11.30;99.90
49032;DHT22;63443;48.366;10.876;2023-04-24T01:09:36;11.20;99.90
49032;DHT22;63443;48.366;10.876;2023-04-24T01:12:02;11.20;99.90
49032;DHT22;63443;48.366;10.876;2023-04-24T01:14:28;11.20;99.90
49032;DHT22;63443;48.366;10.876;2023-04-24T01:16:53;11.20;99.90
49032;DHT22;63443;48.366;10.876;2023-04-24T01:19:18;11.20;99.90
49032;DHT22;63443;48.366;10.876;2023-04-24T01:21:44;11.20;99.90
49032;DHT22;63443;48.366;10.876;2023-04-24T01:24:10;11.20;99.90
49032;DHT22;63443;48.366;10.876;2023-04-24T01:26:36;11.20;99.90
49032;DHT22;63443;48.366;10.876;2023-04-24T01:29:01;11.20;99.90
49032;DHT22;63443;48.366;10.876;2023-04-24T01:31:27;11.30;99.90
49032;DHT22;63443;48.366;10.876;2023-04-24T01:33:53;11.30;99.90
49032;DHT22;63443;48.366;10.876;2023-04-24T01:36:19;11.30;99.90
49032;DHT22;63443;48.366;10.876;2023-04-24T01:38:45;11.30;99.90
49032;DHT22;63443;48.366;10.876;2023-04-24T01:41:11;11.30;99.90
49032;DHT22;63443;48.366;10.876;2023-04-24T01:43:36;11.30;99.90
49032;DHT22;63443;48.366;10.876;2023-04-24T01:46:02;11.30;99.90
49032;DHT22;63443;48.366;10.876;2023-04-24T01:48:27;11.30;99.90
49032;DHT22;63443;48.366;10.876;2023-04-24T01:50:53;11.20;99.90
49032;DHT22;63443;48.366;10.876;2023-04-24T01:53:19;11.20;99.90
49032;DHT22;63443;48.366;10.876;2023-04-24T01:55:44;11.20;99.90
49032;DHT22;63443;48.366;10.876;2023-04-24T01:58:10;11.20;99.90
49032;DHT22;63443;48.366;10.876;2023-04-24T02:00:36;11.20;99.90
49032;DHT22;63443;48.366;10.876;2023-04-24T02:03:01;11.20;99.90
49032;DHT22;63443;48.366;10.876;2023-04-24T02:05:27;11.20;99.90
49032;DHT22;63443;48.366;10.876;2023-04-24T02:07:52;11.20;99.90
49032;DHT22;63443;48.366;10.876;2023-04-24T02:10:18;11.10;99.90
49032;DHT22;63443;48.366;10.876;2023-04-24T02:12:43;11.00;99.90
49032;DHT22;63443;48.366;10.876;2023-04-24T02:15:09;11.00;99.90
49032;DHT22;63443;48.366;10.876;2023-04-24T02:17:34;11.00;99.90
49032;DHT22;63443;48.366;10.876;2023-04-24T02:20:00;11.00;99.90
49032;DHT22;63443;48.366;10.876;2023-04-24T02:22:25;10.90;99.90
49032;DHT22;63443;48.366;10.876;2023-04-24T02:24:51;10.90;99.90
49032;DHT22;63443;48.366;10.876;2023-04-24T02:27:16;10.90;99.90
49032;DHT22;63443;48.366;10.876;2023-04-24T02:29:42;10.80;99.90
49032;DHT22;63443;48.366;10.876;2023-04-24T02:32:07;10.80;99.90
49032;DHT22;63443;48.366;10.876;2023-04-24T02:34:37;10.80;99.90
49032;DHT22;63443;48.366;10.876;2023-04-24T02:37:02;10.80;99.90
49032;DHT22;63443;48.366;10.876;2023-04-24T02:39:28;10.90;99.90
49032;DHT22;63443;48.366;10.876;2023-04-24T02:41:53;10.90;99.90
49032;DHT22;63443;48.366;10.876;2023-04-24T02:44:19;10.90;99.90
49032;DHT22;63443;48.366;10.876;2023-04-24T02:46:44;10.90;99.90
49032;DHT22;63443;48.366;10.876;2023-04-24T02:49:10;10.90;99.90
49032;DHT22;63443;48.366;10.876;2023-04-24T02:51:37;10.90;99.90
49032;DHT22;63443;48.366;10.876;2023-04-24T02:54:05;11.00;99.90
49032;DHT22;63443;48.366;10.876;2023-04-24T02:56:31;11.00;99.90
49032;DHT22;63443;48.366;10.876;2023-04-24T02:58:56;11.00;99.90
49032;DHT22;63443;48.366;10.876;2023-04-24T03:01:22;11.00;99.90
49032;DHT22;63443;48.366;10.876;2023-04-24T03:03:47;11.00;99.90
49032;DHT22;63443;48.366;10.876;2023-04-24T03:06:13;11.00;99.90
49032;DHT22;63443;48.366;10.876;2023-04-24T03:08:38;10.90;99.90
49032;DHT22;63443;48.366;10.876;2023-04-24T03:11:04;10.90;99.90
49032;DHT22;63443;48.366;10.876;2023-04-24T03:13:29;11.00;99.90
49032;DHT22;63443;48.366;10.876;2023-04-24T03:15:55;10.90;99.90
49032;DHT22;63443;48.366;10.876;2023-04-24T03:18:20;11.00;99.90
49032;DHT22;63443;48.366;10.876;2023-04-24T03:20:46;11.00;99.90
49032;DHT22;63443;48.366;10.876;2023-04-24T03:23:12;11.00;99.90
49032;DHT22;63443;48.366;10.876;2023-04-24T03:25:38;11.00;99.90
49032;DHT22;63443;48.366;10.876;2023-04-24T03:28:04;11.00;99.90
49032;DHT22;63443;48.366;10.876;2023-04-24T03:30:30;11.00;99.90
49032;DHT22;63443;48.366;10.876;2023-04-24T03:32:55;11.00;99.90
49032;DHT22;63443;48.366;10.876;2023-04-24T03:35:21;10.90;99.90
49032;DHT22;63443;48.366;10.876;2023-04-24T03:37:47;10.90;99.90
49032;DHT22;63443;48.366;10.876;2023-04-24T03:40:12;11.00;99.90
49032;DHT22;63443;48.366;10.876;2023-04-24T03:42:38;11.00;99.90
49032;DHT22;63443;48.366;10.876;2023-04-24T03:45:04;11.10;99.90
49032;DHT22;63443;48.366;10.876;2023-04-24T03:47:30;11.10;99.90
49032;DHT22;63443;48.366;10.876;2023-04-24T03:49:56;11.10;99.90
49032;DHT22;63443;48.366;10.876;2023-04-24T03:52:21;11.20;99.90
49032;DHT22;63443;48.366;10.876;2023-04-24T03:54:47;11.30;99.90
49032;DHT22;63443;48.366;10.876;2023-04-24T03:57:12;11.30;99.90
49032;DHT22;63443;48.366;10.876;2023-04-24T03:59:38;11.20;99.90
49032;DHT22;63443;48.366;10.876;2023-04-24T04:02:03;11.20;99.90
49032;DHT22;63443;48.366;10.876;2023-04-24T04:04:29;11.20;99.90
49032;DHT22;63443;48.366;10.876;2023-04-24T04:06:54;11.20;99.90
49032;DHT22;63443;48.366;10.876;2023-04-24T04:09:20;11.20;99.90
49032;DHT22;63443;48.366;10.876;2023-04-24T04:11:45;11.20;99.90
49032;DHT22;63443;48.366;10.876;2023-04-24T04:14:11;11.20;99.90
49032;DHT22;63443;48.366;10.876;2023-04-24T04:16:36;11.20;99.90
49032;DHT22;63443;48.366;10.876;2023-04-24T04:19:02;11.30;99.90
49032;DHT22;63443;48.366;10.876;2023-04-24T04:21:28;11.30;99.90
49032;DHT22;63443;48.366;10.876;2023-04-24T04:23:54;11.20;99.90
49032;DHT22;63443;48.366;10.876;2023-04-24T04:26:19;11.10;99.90
49032;DHT22;63443;48.366;10.876;2023-04-24T04:28:46;11.00;99.90
49032;DHT22;63443;48.366;10.876;2023-04-24T04:31:13;11.00;99.90
49032;DHT22;63443;48.366;10.876;2023-04-24T04:33:38;11.00;99.90
49032;DHT22;63443;48.366;10.876;2023-04-24T04:36:04;11.10;99.90
49032;DHT22;63443;48.366;10.876;2023-04-24T04:38:30;11.10;99.90
49032;DHT22;63443;48.366;10.876;2023-04-24T04:40:56;11.10;99.90
49032;DHT22;63443;48.366;10.876;2023-04-24T04:43:22;11.00;99.90
49032;DHT22;63443;48.366;10.876;2023-04-24T04:45:48;11.10;99.90
49032;DHT22;63443;48.366;10.876;2023-04-24T04:48:13;11.00;99.90
49032;DHT22;63443;48.366;10.876;2023-04-24T04:50:39;11.00;99.90
49032;DHT22;63443;48.366;10.876;2023-04-24T04:53:04;10.90;99.90
49032;DHT22;63443;48.366;10.876;2023-04-24T04:55:30;10.90;99.90
49032;DHT22;63443;48.366;10.876;2023-04-24T04:57:56;10.90;99.90
49032;DHT22;63443;48.366;10.876;2023-04-24T05:00:22;10.90;99.90
49032;DHT22;63443;48.366;10.876;2023-04-24T05:02:50;10.80;99.90
49032;DHT22;63443;48.366;10.876;2023-04-24T05:05:16;10.80;99.90
49032;DHT22;63443;48.366;10.876;2023-04-24T05:07:43;10.80;99.90
49032;DHT22;63443;48.366;10.876;2023-04-24T05:10:09;10.80;99.90
49032;DHT22;63443;48.366;10.876;2023-04-24T05:12:34;10.80;99.90
49032;DHT22;63443;48.366;10.876;2023-04-24T05:15:00;10.80;99.90
49032;DHT22;63443;48.366;10.876;2023-04-24T05:17:26;10.80;99.90
49032;DHT22;63443;48.366;10.876;2023-04-24T05:19:51;10.80;99.90
49032;DHT22;63443;48.366;10.876;2023-04-24T05:22:17;10.70;99.90
49032;DHT22;63443;48.366;10.876;2023-04-24T05:24:45;10.80;99.90
49032;DHT22;63443;48.366;10.876;2023-04-24T05:27:10;10.80;99.90
49032;DHT22;63443;48.366;10.876;2023-04-24T05:29:36;10.80;99.90
49032;DHT22;63443;48.366;10.876;2023-04-24T05:32:02;10.80;99.90
49032;DHT22;63443;48.366;10.876;2023-04-24T05:34:27;10.80;99.90
49032;DHT22;63443;48.366;10.876;2023-04-24T05:36:53;10.80;99.90
49032;DHT22;63443;48.366;10.876;2023-04-24T05:39:18;10.80;99.90
49032;DHT22;63443;48.366;10.876;2023-04-24T05:41:45;10.80;99.90
49032;DHT22;63443;48.366;10.876;2023-04-24T05:44:10;10.80;99.90
49032;DHT22;63443;48.366;10.876;2023-04-24T05:46:36;10.80;99.90
49032;DHT22;63443;48.366;10.876;2023-04-24T05:49:01;10.80;99.90
49032;DHT22;63443;48.366;10.876;2023-04-24T05:51:28;10.70;99.90
49032;DHT22;63443;48.366;10.876;2023-04-24T05:53:53;10.70;99.90
49032;DHT22;63443;48.366;10.876;2023-04-24T05:56:19;10.70;99.90
49032;DHT22;63443;48.366;10.876;2023-04-24T05:58:46;10.80;99.90
49032;DHT22;63443;48.366;10.876;2023-04-24T06:01:12;10.80;99.90
49032;DHT22;63443;48.366;10.876;2023-04-24T06:03:38;10.80;99.90
49032;DHT22;63443;48.366;10.876;2023-04-24T06:06:05;10.80;99.90
49032;DHT22;63443;48.366;10.876;2023-04-24T06:08:31;10.80;99.90
49032;DHT22;63443;48.366;10.876;2023-04-24T06:10:56;10.80;99.90
49032;DHT22;63443;48.366;10.876;2023-04-24T06:13:22;10.90;99.90
49032;DHT22;63443;48.366;10.876;2023-04-24T06:15:47;10.90;99.90
49032;DHT22;63443;48.366;10.876;2023-04-24T06:18:13;10.80;99.90
49032;DHT22;63443;48.366;10.876;2023-04-24T06:20:39;10.90;99.90
49032;DHT22;63443;48.366;10.876;2023-04-24T06:23:05;11.00;99.90
49032;DHT22;63443;48.366;10.876;2023-04-24T06:25:30;11.00;99.90
49032;DHT22;63443;48.366;10.876;2023-04-24T06:27:56;11.00;99.90
49032;DHT22;63443;48.366;10.876;2023-04-24T06:30:22;11.00;99.90
49032;DHT22;63443;48.366;10.876;2023-04-24T06:32:48;11.00;99.90
49032;DHT22;63443;48.366;10.876;2023-04-24T06:35:14;11.40;99.90
49032;DHT22;63443;48.366;10.876;2023-04-24T06:37:43;11.70;99.90
49032;DHT22;63443;48.366;10.876;2023-04-24T06:40:09;12.00;99.90
49032;DHT22;63443;48.366;10.876;2023-04-24T06:42:35;12.20;99.90
49032;DHT22;63443;48.366;10.876;2023-04-24T06:45:01;12.30;99.90
49032;DHT22;63443;48.366;10.876;2023-04-24T06:47:27;12.40;99.90
49032;DHT22;63443;48.366;10.876;2023-04-24T06:49:53;12.30;99.90
49032;DHT22;63443;48.366;10.876;2023-04-24T06:52:19;12.10;99.90
49032;DHT22;63443;48.366;10.876;2023-04-24T06:54:44;12.00;99.90
49032;DHT22;63443;48.366;10.876;2023-04-24T06:57:10;11.90;99.90
49032;DHT22;63443;48.366;10.876;2023-04-24T06:59:36;11.90;99.90
49032;DHT22;63443;48.366;10.876;2023-04-24T07:02:02;11.80;99.90
49032;DHT22;63443;48.366;10.876;2023-04-24T07:04:28;11.90;99.90
49032;DHT22;63443;48.366;10.876;2023-04-24T07:06:54;11.80;99.90
49032;DHT22;63443;48.366;10.876;2023-04-24T07:09:21;11.90;99.90
49032;DHT22;63443;48.366;10.876;2023-04-24T07:11:47;11.80;99.90
49032;DHT22;63443;48.366;10.876;2023-04-24T07:14:13;11.80;99.90
49032;DHT22;63443;48.366;10.876;2023-04-24T07:16:39;11.70;99.90
49032;DHT22;63443;48.366;10.876;2023-04-24T07:19:05;11.70;99.90
49032;DHT22;63443;48.366;10.876;2023-04-24T07:21:31;11.70;99.90
49032;DHT22;63443;48.366;10.876;2023-04-24T07:23:58;11.70;99.90
49032;DHT22;63443;48.366;10.876;2023-04-24T07:26:23;11.70;99.90
49032;DHT22;63443;48.366;10.876;2023-04-24T07:28:49;11.70;99.90
49032;DHT22;63443;48.366;10.876;2023-04-24T07:31:15;11.70;99.90
49032;DHT22;63443;48.366;10.876;2023-04-24T07:33:40;11.60;99.90
49032;DHT22;63443;48.366;10.876;2023-04-24T07:36:06;11.60;99.90
49032;DHT22;63443;48.366;10.876;2023-04-24T07:38:31;11.70;99.90
49032;DHT22;63443;48.366;10.876;2023-04-24T07:40:57;11.70;99.90
49032;DHT22;63443;48.366;10.876;2023-04-24T07:43:23;11.70;99.90
49032;DHT22;63443;48.366;10.876;2023-04-24T07:45:50;11.80;99.90
49032;DHT22;63443;48.366;10.876;2023-04-24T07:48:16;11.80;99.90
49032;DHT22;63443;48.366;10.876;2023-04-24T07:50:43;11.80;99.90
49032;DHT22;63443;48.366;10.876;2023-04-24T07:53:09;11.80;99.90
49032;DHT22;63443;48.366;10.876;2023-04-24T07:55:34;11.80;99.90
49032;DHT22;63443;48.366;10.876;2023-04-24T07:58:00;11.80;99.90
49032;DHT22;63443;48.366;10.876;2023-04-24T08:00:25;11.90;99.90
49032;DHT22;63443;48.366;10.876;2023-04-24T08:02:51;12.00;99.90
49032;DHT22;63443;48.366;10.876;2023-04-24T08:05:17;12.00;99.90
49032;DHT22;63443;48.366;10.876;2023-04-24T08:07:42;12.10;99.90
49032;DHT22;63443;48.366;10.876;2023-04-24T08:10:10;12.10;99.90
49032;DHT22;63443;48.366;10.876;2023-04-24T08:12:36;12.10;99.90
49032;DHT22;63443;48.366;10.876;2023-04-24T08:15:02;12.10;99.90
49032;DHT22;63443;48.366;10.876;2023-04-24T08:17:27;12.20;99.90
49032;DHT22;63443;48.366;10.876;2023-04-24T08:19:53;12.10;99.90
49032;DHT22;63443;48.366;10.876;2023-04-24T08:22:26;12.20;99.90
49032;DHT22;63443;48.366;10.876;2023-04-24T08:24:52;12.10;99.90
49032;DHT22;63443;48.366;10.876;2023-04-24T08:27:18;12.20;99.90
49032;DHT22;63443;48.366;10.876;2023-04-24T08:29:43;12.30;99.90
49032;DHT22;63443;48.366;10.876;2023-04-24T08:32:09;12.40;99.90
49032;DHT22;63443;48.366;10.876;2023-04-24T08:34:34;12.50;99.90
49032;DHT22;63443;48.366;10.876;2023-04-24T08:37:00;12.50;99.90
49032;DHT22;63443;48.366;10.876;2023-04-24T08:39:26;12.60;99.90
49032;DHT22;63443;48.366;10.876;2023-04-24T08:41:52;12.70;99.90
49032;DHT22;63443;48.366;10.876;2023-04-24T08:44:19;12.80;99.90
49032;DHT22;63443;48.366;10.876;2023-04-24T08:46:45;12.90;99.90
49032;DHT22;63443;48.366;10.876;2023-04-24T08:49:14;12.90;99.90
49032;DHT22;63443;48.366;10.876;2023-04-24T08:51:42;13.00;99.90
49032;DHT22;63443;48.366;10.876;2023-04-24T08:54:08;12.90;99.90
49032;DHT22;63443;48.366;10.876;2023-04-24T08:56:36;13.00;99.90
49032;DHT22;63443;48.366;10.876;2023-04-24T08:59:06;13.00;99.90
49032;DHT22;63443;48.366;10.876;2023-04-24T09:01:32;12.90;99.90
49032;DHT22;63443;48.366;10.876;2023-04-24T09:04:00;12.70;99.90
49032;DHT22;63443;48.366;10.876;2023-04-24T09:06:26;12.60;99.90
49032;DHT22;63443;48.366;10.876;2023-04-24T09:08:52;12.60;99.90
49032;DHT22;63443;48.366;10.876;2023-04-24T09:11:19;12.70;99.90
49032;DHT22;63443;48.366;10.876;2023-04-24T09:13:44;12.80;99.90
49032;DHT22;63443;48.366;10.876;2023-04-24T09:16:10;12.90;99.90
49032;DHT22;63443;48.366;10.876;2023-04-24T09:18:36;12.90;99.90
49032;DHT22;63443;48.366;10.876;2023-04-24T09:23:31;12.90;99.90
49032;DHT22;63443;48.366;10.876;2023-04-24T09:25:57;12.90;99.90
49032;DHT22;63443;48.366;10.876;2023-04-24T09:28:25;13.00;99.90
49032;DHT22;63443;48.366;10.876;2023-04-24T09:31:01;13.00;99.90
49032;DHT22;63443;48.366;10.876;2023-04-24T09:33:27;13.00;99.90
49032;DHT22;63443;48.366;10.876;2023-04-24T09:35:52;12.90;99.90
49032;DHT22;63443;48.366;10.876;2023-04-24T09:38:17;13.00;99.90
49032;DHT22;63443;48.366;10.876;2023-04-24T09:40:43;13.00;99.90
49032;DHT22;63443;48.366;10.876;2023-04-24T09:43:12;13.00;99.90
49032;DHT22;63443;48.366;10.876;2023-04-24T09:45:40;13.10;99.90
49032;DHT22;63443;48.366;10.876;2023-04-24T09:48:08;13.20;99.90
49032;DHT22;63443;48.366;10.876;2023-04-24T09:50:35;13.30;99.90
49032;DHT22;63443;48.366;10.876;2023-04-24T09:53:01;13.40;99.90
49032;DHT22;63443;48.366;10.876;2023-04-24T09:55:27;13.50;99.90
49032;DHT22;63443;48.366;10.876;2023-04-24T10:00:26;13.50;98.90
49032;DHT22;63443;48.366;10.876;2023-04-24T10:02:57;13.40;98.70
49032;DHT22;63443;48.366;10.876;2023-04-24T10:05:27;13.40;99.30
49032;DHT22;63443;48.366;10.876;2023-04-24T10:08:06;13.60;99.80
49032;DHT22;63443;48.366;10.876;2023-04-24T10:10:34;13.80;99.50
49032;DHT22;63443;48.366;10.876;2023-04-24T10:13:00;13.80;99.90
49032;DHT22;63443;48.366;10.876;2023-04-24T10:15:27;13.80;99.90
49032;DHT22;63443;48.366;10.876;2023-04-24T10:17:52;13.40;99.40
49032;DHT22;63443;48.366;10.876;2023-04-24T10:20:19;13.00;99.90
49032;DHT22;63443;48.366;10.876;2023-04-24T10:22:46;12.50;99.90
49032;DHT22;63443;48.366;10.876;2023-04-24T10:25:16;12.30;99.90
49032;DHT22;63443;48.366;10.876;2023-04-24T10:27:43;12.00;99.90
49032;DHT22;63443;48.366;10.876;2023-04-24T10:30:10;12.00;99.90
49032;DHT22;63443;48.366;10.876;2023-04-24T10:32:36;11.80;99.90
49032;DHT22;63443;48.366;10.876;2023-04-24T10:35:02;11.60;99.90
49032;DHT22;63443;48.366;10.876;2023-04-24T10:37:28;11.30;99.90
49032;DHT22;63443;48.366;10.876;2023-04-24T10:39:54;11.20;99.90
49032;DHT22;63443;48.366;10.876;2023-04-24T10:42:21;11.10;99.90
49032;DHT22;63443;48.366;10.876;2023-04-24T10:44:47;11.30;99.90
49032;DHT22;63443;48.366;10.876;2023-04-24T10:47:14;11.30;99.90
49032;DHT22;63443;48.366;10.876;2023-04-24T10:49:39;11.50;99.90
49032;DHT22;63443;48.366;10.876;2023-04-24T10:52:05;11.70;99.90
49032;DHT22;63443;48.366;10.876;2023-04-24T10:54:35;11.80;99.90
49032;DHT22;63443;48.366;10.876;2023-04-24T10:59:46;11.80;99.90
49032;DHT22;63443;48.366;10.876;2023-04-24T11:02:14;11.90;99.90
49032;DHT22;63443;48.366;10.876;2023-04-24T11:04:41;12.00;99.90
49032;DHT22;63443;48.366;10.876;2023-04-24T11:07:09;12.10;99.90
49032;DHT22;63443;48.366;10.876;2023-04-24T11:09:35;12.20;99.90
49032;DHT22;63443;48.366;10.876;2023-04-24T11:12:06;12.50;99.90
49032;DHT22;63443;48.366;10.876;2023-04-24T11:17:36;12.90;99.90
49032;DHT22;63443;48.366;10.876;2023-04-24T11:20:10;13.10;99.90
49032;DHT22;63443;48.366;10.876;2023-04-24T11:22:38;13.30;99.90
49032;DHT22;63443;48.366;10.876;2023-04-24T11:25:05;13.50;99.90
49032;DHT22;63443;48.366;10.876;2023-04-24T11:27:42;13.70;99.90
49032;DHT22;63443;48.366;10.876;2023-04-24T11:30:08;13.80;99.90
49032;DHT22;63443;48.366;10.876;2023-04-24T11:32:42;13.70;99.30
49032;DHT22;63443;48.366;10.876;2023-04-24T11:35:16;13.80;98.60
49032;DHT22;63443;48.366;10.876;2023-04-24T11:37:44;13.90;98.70
49032;DHT22;63443;48.366;10.876;2023-04-24T11:40:15;14.00;98.00
49032;DHT22;63443;48.366;10.876;2023-04-24T11:42:45;14.30;97.00
49032;DHT22;63443;48.366;10.876;2023-04-24T11:45:14;14.40;95.30
49032;DHT22;63443;48.366;10.876;2023-04-24T11:47:41;14.30;94.20
49032;DHT22;63443;48.366;10.876;2023-04-24T11:50:09;14.30;94.40
49032;DHT22;63443;48.366;10.876;2023-04-24T11:52:42;14.00;93.80
49032;DHT22;63443;48.366;10.876;2023-04-24T11:57:50;13.70;95.30
49032;DHT22;63443;48.366;10.876;2023-04-24T12:00:18;13.70;95.60
49032;DHT22;63443;48.366;10.876;2023-04-24T12:02:44;13.90;93.80
49032;DHT22;63443;48.366;10.876;2023-04-24T12:05:22;14.00;93.50
49032;DHT22;63443;48.366;10.876;2023-04-24T12:07:48;14.30;93.80
49032;DHT22;63443;48.366;10.876;2023-04-24T12:10:13;14.70;92.70
49032;DHT22;63443;48.366;10.876;2023-04-24T12:12:40;15.00;91.80
49032;DHT22;63443;48.366;10.876;2023-04-24T12:15:09;15.20;91.00
49032;DHT22;63443;48.366;10.876;2023-04-24T12:17:35;15.20;86.30
49032;DHT22;63443;48.366;10.876;2023-04-24T12:20:06;15.20;86.90
49032;DHT22;63443;48.366;10.876;2023-04-24T12:22:51;14.90;85.30
49032;DHT22;63443;48.366;10.876;2023-04-24T12:25:20;14.80;87.60
49032;DHT22;63443;48.366;10.876;2023-04-24T12:30:35;14.70;87.60
49032;DHT22;63443;48.366;10.876;2023-04-24T12:33:03;14.70;88.30
49032;DHT22;63443;48.366;10.876;2023-04-24T12:35:30;14.70;88.50
49032;DHT22;63443;48.366;10.876;2023-04-24T12:38:08;14.90;89.40
49032;DHT22;63443;48.366;10.876;2023-04-24T12:40:33;15.20;88.60
49032;DHT22;63443;48.366;10.876;2023-04-24T12:42:59;15.40;84.50
49032;DHT22;63443;48.366;10.876;2023-04-24T12:45:25;15.70;85.80
49032;DHT22;63443;48.366;10.876;2023-04-24T12:47:53;15.80;83.40
49032;DHT22;63443;48.366;10.876;2023-04-24T12:50:18;15.60;83.10
49032;DHT22;63443;48.366;10.876;2023-04-24T12:52:44;15.30;82.90
49032;DHT22;63443;48.366;10.876;2023-04-24T12:55:10;15.10;82.00
49032;DHT22;63443;48.366;10.876;2023-04-24T12:57:38;14.80;82.10
49032;DHT22;63443;48.366;10.876;2023-04-24T13:00:05;14.60;82.90
49032;DHT22;63443;48.366;10.876;2023-04-24T13:02:31;14.40;83.70
49032;DHT22;63443;48.366;10.876;2023-04-24T13:04:58;14.40;82.40
49032;DHT22;63443;48.366;10.876;2023-04-24T13:07:24;14.70;81.80
49032;DHT22;63443;48.366;10.876;2023-04-24T13:09:50;16.40;79.50
49032;DHT22;63443;48.366;10.876;2023-04-24T13:12:16;18.80;70.20
49032;DHT22;63443;48.366;10.876;2023-04-24T13:14:42;20.30;60.50
49032;DHT22;63443;48.366;10.876;2023-04-24T13:17:07;20.50;58.20
49032;DHT22;63443;48.366;10.876;2023-04-24T13:19:38;22.10;56.30
49032;DHT22;63443;48.366;10.876;2023-04-24T13:22:05;22.90;52.70
49032;DHT22;63443;48.366;10.876;2023-04-24T13:24:31;24.10;49.30
49032;DHT22;63443;48.366;10.876;2023-04-24T13:26:57;25.50;47.20
49032;DHT22;63443;48.366;10.876;2023-04-24T13:29:23;25.10;44.40
49032;DHT22;63443;48.366;10.876;2023-04-24T13:31:50;25.50;45.70
49032;DHT22;63443;48.366;10.876;2023-04-24T13:34:16;23.50;44.70
49032;DHT22;63443;48.366;10.876;2023-04-24T13:36:42;22.10;47.50
49032;DHT22;63443;48.366;10.876;2023-04-24T13:39:07;21.60;48.10
49032;DHT22;63443;48.366;10.876;2023-04-24T13:41:33;21.60;49.70
49032;DHT22;63443;48.366;10.876;2023-04-24T13:43:59;20.70;48.80
49032;DHT22;63443;48.366;10.876;2023-04-24T13:46:25;19.40;51.70
49032;DHT22;63443;48.366;10.876;2023-04-24T13:48:50;18.30;54.50
49032;DHT22;63443;48.366;10.876;2023-04-24T13:51:16;18.60;56.70
49032;DHT22;63443;48.366;10.876;2023-04-24T13:53:42;18.10;56.50
49032;DHT22;63443;48.366;10.876;2023-04-24T13:56:07;17.50;56.20
49032;DHT22;63443;48.366;10.876;2023-04-24T13:58:34;16.90;58.00
49032;DHT22;63443;48.366;10.876;2023-04-24T14:01:01;16.40;58.80
49032;DHT22;63443;48.366;10.876;2023-04-24T14:03:27;16.00;59.60
49032;DHT22;63443;48.366;10.876;2023-04-24T14:05:52;15.70;59.70
49032;DHT22;63443;48.366;10.876;2023-04-24T14:08:18;18.30;58.30
49032;DHT22;63443;48.366;10.876;2023-04-24T14:10:43;17.50;56.70
49032;DHT22;63443;48.366;10.876;2023-04-24T14:13:09;17.00;56.30
49032;DHT22;63443;48.366;10.876;2023-04-24T14:15:35;16.30;57.90
49032;DHT22;63443;48.366;10.876;2023-04-24T14:18:01;15.60;59.00
49032;DHT22;63443;48.366;10.876;2023-04-24T14:20:26;15.20;60.00
49032;DHT22;63443;48.366;10.876;2023-04-24T14:22:52;16.60;60.60
49032;DHT22;63443;48.366;10.876;2023-04-24T14:25:18;20.30;56.50
49032;DHT22;63443;48.366;10.876;2023-04-24T14:27:44;23.60;53.00
49032;DHT22;63443;48.366;10.876;2023-04-24T14:30:10;24.30;47.00
49032;DHT22;63443;48.366;10.876;2023-04-24T14:32:38;26.30;46.80
49032;DHT22;63443;48.366;10.876;2023-04-24T14:35:05;29.30;44.30
49032;DHT22;63443;48.366;10.876;2023-04-24T14:37:31;31.20;42.20
49032;DHT22;63443;48.366;10.876;2023-04-24T14:39:57;32.30;40.20
49032;DHT22;63443;48.366;10.876;2023-04-24T14:42:23;33.70;38.80
49032;DHT22;63443;48.366;10.876;2023-04-24T14:44:48;33.40;37.20
49032;DHT22;63443;48.366;10.876;2023-04-24T14:47:14;31.80;36.40
49032;DHT22;63443;48.366;10.876;2023-04-24T14:49:40;28.50;37.80
49032;DHT22;63443;48.366;10.876;2023-04-24T14:52:05;28.50;38.50
49032;DHT22;63443;48.366;10.876;2023-04-24T14:54:31;25.40;39.90
49032;DHT22;63443;48.366;10.876;2023-04-24T14:56:57;24.20;42.50
49032;DHT22;63443;48.366;10.876;2023-04-24T14:59:22;24.20;42.40
49032;DHT22;63443;48.366;10.876;2023-04-24T15:01:48;24.90;41.60
49032;DHT22;63443;48.366;10.876;2023-04-24T15:04:14;23.60;42.70
49032;DHT22;63443;48.366;10.876;2023-04-24T15:06:40;22.40;44.30
49032;DHT22;63443;48.366;10.876;2023-04-24T15:09:05;24.10;43.40
49032;DHT22;63443;48.366;10.876;2023-04-24T15:11:32;24.40;41.20
49032;DHT22;63443;48.366;10.876;2023-04-24T15:13:57;26.30;41.70
49032;DHT22;63443;48.366;10.876;2023-04-24T15:16:24;27.10;40.30
49032;DHT22;63443;48.366;10.876;2023-04-24T15:18:49;28.30;38.90
49032;DHT22;63443;48.366;10.876;2023-04-24T15:21:15;24.40;40.00
49032;DHT22;63443;48.366;10.876;2023-04-24T15:23:40;21.60;42.80
49032;DHT22;63443;48.366;10.876;2023-04-24T15:26:06;19.60;46.20